createdAt,value
2023-04-17T00:01:16.164Z,9.00
2023-04-17T00:03:43.177Z,5.68
2023-04-17T00:06:09.967Z,5.13
2023-04-17T00:08:36.665Z,4.38
2023-04-17T00:11:07.814Z,4.25
2023-04-17T00:13:36.286Z,4.43
2023-04-17T00:16:03.353Z,6.03
2023-04-17T00:18:30.130Z,4.38
2023-04-17T00:20:57.185Z,4.65
2023-04-17T00:23:25.709Z,4.35
2023-04-17T00:25:52.343Z,4.07
2023-04-17T00:28:19.410Z,4.38
2023-04-17T00:30:46.802Z,5.88
2023-04-17T00:33:13.662Z,5.47
2023-04-17T00:35:40.330Z,5.70
2023-04-17T00:38:09.151Z,4.60
2023-04-17T00:40:36.440Z,5.22
2023-04-17T00:43:04.710Z,4.30
2023-04-17T00:45:31.569Z,5.00
2023-04-17T00:48:00.622Z,5.55
2023-04-17T00:50:31.443Z,4.68
2023-04-17T00:52:59.616Z,5.30
2023-04-17T00:55:27.621Z,5.43
2023-04-17T00:57:55.657Z,5.25
2023-04-17T01:00:22.756Z,5.00
2023-04-17T01:02:49.489Z,5.63
2023-04-17T01:05:16.218Z,5.35
2023-04-17T01:07:43.058Z,4.25
2023-04-17T01:10:10.483Z,5.25
2023-04-17T01:12:37.235Z,5.13
2023-04-17T01:15:04.828Z,6.05
2023-04-17T01:17:31.636Z,5.20
2023-04-17T01:19:58.383Z,4.70
2023-04-17T01:22:25.472Z,4.68
2023-04-17T01:24:52.160Z,4.70
2023-04-17T01:27:18.771Z,5.90
2023-04-17T01:29:45.482Z,4.55
2023-04-17T01:32:12.355Z,5.70
2023-04-17T01:34:39.030Z,4.90
2023-04-17T01:37:05.824Z,4.63
2023-04-17T01:39:32.510Z,4.50
2023-04-17T01:41:59.228Z,4.68
2023-04-17T01:44:25.922Z,4.75
2023-04-17T01:46:56.853Z,4.18
2023-04-17T01:49:23.518Z,4.57
2023-04-17T01:51:50.124Z,3.95
2023-04-17T01:54:16.794Z,4.82
2023-04-17T01:56:43.457Z,3.63
2023-04-17T01:59:11.053Z,4.00
2023-04-17T02:01:38.113Z,4.07
2023-04-17T02:04:06.175Z,3.53
2023-04-17T02:06:35.964Z,3.55
2023-04-17T02:09:03.124Z,5.47
2023-04-17T02:11:29.817Z,5.15
2023-04-17T02:13:56.443Z,5.95
2023-04-17T02:16:23.231Z,5.43
2023-04-17T02:18:52.061Z,4.82
2023-04-17T02:21:18.737Z,4.75
2023-04-17T02:23:46.746Z,4.85
2023-04-17T02:26:14.800Z,4.70
2023-04-17T02:28:44.290Z,4.40
2023-04-17T02:31:12.052Z,4.82
2023-04-17T02:33:38.861Z,3.90
2023-04-17T02:36:06.410Z,4.60
2023-04-17T02:38:33.135Z,6.15
2023-04-17T02:41:00.299Z,5.22
2023-04-17T02:43:26.928Z,4.90
2023-04-17T02:45:53.569Z,5.03
2023-04-17T02:48:20.388Z,5.35
2023-04-17T02:50:47.065Z,5.50
2023-04-17T02:53:14.754Z,5.60
2023-04-17T02:55:41.382Z,5.13
2023-04-17T02:58:08.279Z,5.07
2023-04-17T03:00:39.390Z,5.95
2023-04-17T03:03:06.377Z,6.40
2023-04-17T03:05:33.388Z,6.97
2023-04-17T03:08:00.220Z,6.82
2023-04-17T03:10:26.922Z,5.38
2023-04-17T03:12:53.698Z,6.15
2023-04-17T03:15:20.443Z,5.05
2023-04-17T03:17:47.391Z,6.28
2023-04-17T03:20:15.963Z,4.60
2023-04-17T03:22:42.805Z,4.72
2023-04-17T03:25:10.039Z,5.32
2023-04-17T03:27:36.734Z,4.90
2023-04-17T03:30:03.668Z,3.67
2023-04-17T03:32:30.369Z,5.40
2023-04-17T03:34:57.012Z,4.80
2023-04-17T03:37:23.709Z,4.07
2023-04-17T03:39:50.410Z,4.45
2023-04-17T03:42:17.083Z,4.53
2023-04-17T03:44:43.712Z,4.28
2023-04-17T03:47:10.725Z,4.53
2023-04-17T03:49:37.452Z,4.57
2023-04-17T03:52:05.330Z,3.58
2023-04-17T03:54:35.488Z,3.55
2023-04-17T03:57:03.475Z,4.20
2023-04-17T03:59:31.860Z,4.15
2023-04-17T04:01:58.918Z,3.25
2023-04-17T04:04:26.216Z,3.00
2023-04-17T04:06:54.619Z,3.40
2023-04-17T04:09:21.626Z,3.80
2023-04-17T04:11:48.514Z,3.38
2023-04-17T04:14:15.287Z,4.88
2023-04-17T04:16:42.320Z,3.00
2023-04-17T04:19:09.392Z,3.50
2023-04-17T04:21:36.571Z,3.47
2023-04-17T04:24:03.403Z,3.83
2023-04-17T04:26:30.048Z,3.75
2023-04-17T04:28:56.824Z,3.10
2023-04-17T04:31:29.768Z,3.63
2023-04-17T04:33:58.318Z,3.45
2023-04-17T04:36:25.370Z,3.25
2023-04-17T04:38:52.036Z,4.13
2023-04-17T04:41:20.050Z,2.90
2023-04-17T04:43:46.743Z,3.92
2023-04-17T04:46:13.476Z,3.63
2023-04-17T04:48:42.714Z,4.00
2023-04-17T04:53:38.995Z,4.18
2023-04-17T04:56:06.072Z,3.28
2023-04-17T04:58:32.742Z,3.70
2023-04-17T05:00:59.435Z,3.63
2023-04-17T05:03:26.458Z,3.53
2023-04-17T05:05:53.242Z,4.10
2023-04-17T05:08:20.437Z,4.20
2023-04-17T05:10:47.248Z,4.03
2023-04-17T05:13:13.994Z,4.20
2023-04-17T05:15:41.615Z,4.63
2023-04-17T05:18:08.318Z,4.82
2023-04-17T05:20:36.405Z,5.82
2023-04-17T05:23:03.210Z,5.70
2023-04-17T05:25:29.896Z,5.55
2023-04-17T05:28:03.213Z,4.95
2023-04-17T05:30:29.832Z,6.05
2023-04-17T05:32:56.645Z,5.65
2023-04-17T05:35:23.349Z,5.03
2023-04-17T05:37:50.248Z,6.88
2023-04-17T05:40:16.951Z,5.18
2023-04-17T05:42:43.630Z,5.63
2023-04-17T05:45:18.136Z,6.10
2023-04-17T05:47:44.972Z,5.43
2023-04-17T05:50:11.813Z,5.35
2023-04-17T05:52:39.632Z,6.47
2023-04-17T05:55:06.895Z,6.03
2023-04-17T05:57:33.505Z,6.50
2023-04-17T06:00:00.340Z,6.10
2023-04-17T06:02:27.376Z,5.50
2023-04-17T06:04:54.559Z,6.68
2023-04-17T06:07:21.666Z,6.80
2023-04-17T06:09:48.277Z,5.28
2023-04-17T06:12:16.358Z,6.07
2023-04-17T06:14:43.621Z,5.35
2023-04-17T06:17:10.679Z,5.32
2023-04-17T06:19:37.431Z,4.55
2023-04-17T06:22:04.147Z,5.05
2023-04-17T06:24:31.216Z,4.25
2023-04-17T06:26:58.083Z,4.35
2023-04-17T06:29:24.753Z,4.40
2023-04-17T06:31:51.399Z,3.63
2023-04-17T06:34:18.112Z,3.92
2023-04-17T06:36:44.783Z,3.90
2023-04-17T06:39:11.761Z,3.72
2023-04-17T06:41:38.667Z,3.58
2023-04-17T06:44:05.825Z,3.95
2023-04-17T06:46:32.542Z,3.58
2023-04-17T06:48:59.786Z,2.95
2023-04-17T06:51:27.798Z,4.13
2023-04-17T06:53:54.470Z,4.43
2023-04-17T06:56:21.541Z,3.28
2023-04-17T06:58:48.252Z,4.97
2023-04-17T07:01:15.366Z,4.53
2023-04-17T07:03:43.418Z,4.45
2023-04-17T07:06:10.888Z,4.35
2023-04-17T07:08:37.580Z,4.40
2023-04-17T07:11:04.292Z,4.05
2023-04-17T07:13:34.050Z,5.65
2023-04-17T07:16:01.459Z,5.75
2023-04-17T07:18:31.489Z,5.80
2023-04-17T07:20:58.177Z,4.53
2023-04-17T07:23:25.362Z,5.55
2023-04-17T07:25:52.006Z,4.38
2023-04-17T07:28:18.802Z,5.18
2023-04-17T07:30:45.713Z,4.63
2023-04-17T07:33:12.562Z,4.70
2023-04-17T07:35:39.670Z,5.25
2023-04-17T07:38:06.386Z,4.68
2023-04-17T07:40:35.986Z,4.63
2023-04-17T07:43:02.660Z,4.00
2023-04-17T07:45:29.308Z,4.22
2023-04-17T07:47:56.015Z,4.70
2023-04-17T07:50:22.870Z,4.57
2023-04-17T07:52:49.548Z,5.13
2023-04-17T07:55:16.795Z,4.90
2023-04-17T07:57:43.609Z,5.55
2023-04-17T08:00:13.771Z,4.72
2023-04-17T08:02:41.817Z,5.78
2023-04-17T08:05:09.631Z,4.88
2023-04-17T08:07:37.203Z,5.80
2023-04-17T08:10:05.283Z,5.88
2023-04-17T08:12:32.125Z,5.25
2023-04-17T08:14:58.921Z,5.55
2023-04-17T08:17:26.133Z,4.95
2023-04-17T08:19:57.636Z,5.55
2023-04-17T08:22:26.057Z,5.28
2023-04-17T08:24:57.917Z,5.10
2023-04-17T08:29:56.638Z,5.35
2023-04-17T08:32:23.450Z,5.63
2023-04-17T08:34:50.174Z,5.22
2023-04-17T08:37:17.006Z,5.18
2023-04-17T08:39:43.760Z,5.90
2023-04-17T08:42:15.859Z,5.57
2023-04-17T08:44:44.305Z,5.03
2023-04-17T08:47:12.809Z,4.93
2023-04-17T08:49:43.482Z,5.18
2023-04-17T08:52:10.962Z,5.10
2023-04-17T08:54:39.080Z,5.05
2023-04-17T08:57:06.312Z,6.10
2023-04-17T08:59:33.341Z,2.58
2023-04-17T09:02:01.672Z,2.40
2023-04-17T09:04:38.864Z,2.67
2023-04-17T09:07:07.291Z,2.70
2023-04-17T09:09:48.195Z,2.53
2023-04-17T09:12:14.893Z,3.13
2023-04-17T09:14:41.664Z,2.30
2023-04-17T09:17:08.593Z,2.17
2023-04-17T09:19:35.500Z,2.60
2023-04-17T09:22:19.614Z,1.92
2023-04-17T09:24:46.458Z,2.75
2023-04-17T09:27:29.297Z,1.85
2023-04-17T09:30:04.459Z,1.92
2023-04-17T09:32:33.528Z,1.33
2023-04-17T09:35:02.324Z,1.30
2023-04-17T09:37:51.026Z,1.25
2023-04-17T09:40:19.812Z,0.95
2023-04-17T09:43:00.730Z,2.22
2023-04-17T09:45:33.583Z,1.70
2023-04-17T09:48:01.204Z,1.50
2023-04-17T09:50:28.040Z,1.58
2023-04-17T09:52:56.080Z,1.45
2023-04-17T09:55:32.663Z,1.90
2023-04-17T09:58:02.787Z,2.72
2023-04-17T10:00:30.107Z,2.50
2023-04-17T10:03:00.302Z,2.00
2023-04-17T10:05:29.346Z,2.47
2023-04-17T10:07:56.659Z,3.00
2023-04-17T10:10:34.209Z,3.50
2023-04-17T10:13:03.153Z,3.65
2023-04-17T10:15:30.600Z,3.00
2023-04-17T10:18:24.262Z,2.88
2023-04-17T10:20:53.649Z,2.15
2023-04-17T10:23:31.737Z,2.25
2023-04-17T10:26:26.531Z,2.00
2023-04-17T10:28:55.996Z,1.88
2023-04-17T10:31:26.013Z,2.00
2023-04-17T10:33:56.913Z,1.70
2023-04-17T10:36:38.849Z,1.23
2023-04-17T10:42:04.744Z,1.10
2023-04-17T10:44:39.454Z,1.35
2023-04-17T10:47:07.397Z,1.30
2023-04-17T10:49:51.273Z,1.20
2023-04-17T10:52:34.557Z,1.70
2023-04-17T10:55:16.377Z,2.00
2023-04-17T11:00:34.289Z,1.70
2023-04-17T11:03:02.043Z,2.47
2023-04-17T11:05:29.349Z,1.80
2023-04-17T11:07:56.551Z,1.48
2023-04-17T11:10:23.348Z,1.90
2023-04-17T11:12:56.739Z,1.35
2023-04-17T11:15:31.351Z,1.50
2023-04-17T11:17:59.422Z,1.98
2023-04-17T11:20:30.275Z,2.30
2023-04-17T11:23:04.506Z,1.83
2023-04-17T11:25:33.829Z,3.00
2023-04-17T11:28:06.556Z,1.88
2023-04-17T11:30:40.736Z,1.55
2023-04-17T11:33:08.300Z,1.65
2023-04-17T11:35:44.038Z,1.08
2023-04-17T11:38:20.782Z,1.77
2023-04-17T11:40:52.888Z,2.15
2023-04-17T11:43:21.483Z,1.42
2023-04-17T11:45:51.148Z,1.20
2023-04-17T11:48:22.699Z,1.17
2023-04-17T11:50:50.099Z,1.30
2023-04-17T11:53:17.509Z,1.55
2023-04-17T11:55:45.081Z,1.90
2023-04-17T11:58:14.074Z,1.40
2023-04-17T12:00:43.034Z,1.95
2023-04-17T12:03:33.591Z,2.55
2023-04-17T12:06:03.062Z,1.85
2023-04-17T12:08:31.134Z,1.80
2023-04-17T12:10:58.770Z,1.40
2023-04-17T12:13:26.365Z,3.13
2023-04-17T12:15:53.168Z,1.70
2023-04-17T12:18:19.932Z,1.98
2023-04-17T12:20:46.601Z,1.63
2023-04-17T12:23:14.324Z,1.45
2023-04-17T12:25:42.664Z,3.78
2023-04-17T12:28:09.366Z,2.95
2023-04-17T12:30:39.678Z,2.50
2023-04-17T12:33:07.245Z,2.50
2023-04-17T12:35:34.093Z,1.70
2023-04-17T12:38:01.017Z,1.80
2023-04-17T12:40:27.743Z,1.90
2023-04-17T12:42:54.457Z,2.30
2023-04-17T12:45:21.313Z,1.60
2023-04-17T12:47:48.284Z,1.48
2023-04-17T12:50:15.089Z,1.60
2023-04-17T12:52:42.099Z,2.80
2023-04-17T12:55:09.665Z,2.40
2023-04-17T12:57:36.824Z,2.85
2023-04-17T13:00:06.697Z,2.70
2023-04-17T13:02:35.422Z,1.63
2023-04-17T13:05:07.842Z,2.10
2023-04-17T13:07:34.576Z,1.80
2023-04-17T13:10:01.302Z,1.85
2023-04-17T13:12:28.009Z,2.00
2023-04-17T13:14:57.256Z,3.22
2023-04-17T13:17:24.924Z,2.50
2023-04-17T13:19:51.986Z,2.00
2023-04-17T13:22:20.688Z,1.75
2023-04-17T13:24:47.487Z,3.70
2023-04-17T13:27:14.198Z,1.92
2023-04-17T13:29:42.664Z,1.95
2023-04-17T13:32:09.858Z,2.40
2023-04-17T13:34:37.605Z,2.33
2023-04-17T13:37:04.356Z,2.33
2023-04-17T13:39:32.024Z,2.00
2023-04-17T13:41:58.696Z,2.00
2023-04-17T13:44:25.727Z,1.90
2023-04-17T13:46:52.884Z,1.90
2023-04-17T13:49:19.867Z,2.10
2023-04-17T13:51:47.118Z,1.90
2023-04-17T13:54:13.807Z,2.78
2023-04-17T13:56:42.415Z,2.10
2023-04-17T13:59:10.578Z,2.08
2023-04-17T14:01:37.840Z,1.88
2023-04-17T14:04:05.213Z,2.38
2023-04-17T14:06:34.813Z,4.35
2023-04-17T14:09:01.790Z,2.28
2023-04-17T14:11:28.709Z,2.15
2023-04-17T14:13:55.353Z,1.85
2023-04-17T14:16:22.081Z,1.60
2023-04-17T14:18:49.399Z,1.88
2023-04-17T14:21:16.948Z,2.08
2023-04-17T14:23:45.222Z,1.98
2023-04-17T14:26:12.601Z,3.65
2023-04-17T14:28:39.443Z,1.92
2023-04-17T14:31:06.417Z,1.60
2023-04-17T14:33:33.092Z,1.55
2023-04-17T14:35:59.834Z,2.00
2023-04-17T14:38:26.527Z,2.00
2023-04-17T14:40:53.354Z,2.30
2023-04-17T14:43:20.020Z,3.33
2023-04-17T14:45:46.867Z,3.45
2023-04-17T14:48:13.719Z,1.70
2023-04-17T14:50:40.490Z,1.75
2023-04-17T14:53:07.145Z,1.60
2023-04-17T14:55:34.421Z,1.08
2023-04-17T14:58:01.024Z,2.00
2023-04-17T15:00:27.641Z,1.40
2023-04-17T15:02:54.498Z,2.30
2023-04-17T15:05:22.501Z,2.90
2023-04-17T15:07:49.225Z,2.22
2023-04-17T15:10:16.236Z,1.60
2023-04-17T15:12:43.998Z,1.38
2023-04-17T15:15:11.143Z,2.85
2023-04-17T15:17:37.814Z,1.15
2023-04-17T15:20:05.826Z,1.60
2023-04-17T15:22:32.738Z,1.88
2023-04-17T15:24:59.426Z,1.42
2023-04-17T15:27:26.119Z,2.00
2023-04-17T15:29:52.834Z,1.73
2023-04-17T15:32:19.607Z,2.38
2023-04-17T15:34:46.430Z,2.47
2023-04-17T15:37:13.164Z,2.30
2023-04-17T15:39:40.054Z,1.80
2023-04-17T15:42:08.695Z,3.25
2023-04-17T15:44:37.550Z,2.35
2023-04-17T15:47:05.669Z,3.10
2023-04-17T15:49:32.882Z,1.70
2023-04-17T15:51:59.838Z,3.22
2023-04-17T15:54:26.893Z,2.08
2023-04-17T15:56:53.734Z,2.28
2023-04-17T15:59:20.869Z,2.25
2023-04-17T16:01:48.255Z,2.70
2023-04-17T16:04:15.304Z,2.28
2023-04-17T16:06:42.142Z,2.33
2023-04-17T16:09:09.872Z,2.92
2023-04-17T16:11:36.624Z,2.03
2023-04-17T16:14:03.479Z,2.28
2023-04-17T16:16:30.141Z,1.80
2023-04-17T16:18:57.627Z,2.50
2023-04-17T16:21:24.384Z,2.50
2023-04-17T16:23:51.035Z,2.92
2023-04-17T16:26:17.775Z,3.20
2023-04-17T16:28:45.812Z,3.85
2023-04-17T16:31:16.365Z,4.18
2023-04-17T16:33:43.813Z,2.80
2023-04-17T16:36:10.470Z,3.17
2023-04-17T16:38:38.750Z,3.58
2023-04-17T16:41:05.547Z,3.05
2023-04-17T16:43:32.219Z,2.65
2023-04-17T16:46:01.220Z,3.70
2023-04-17T16:48:30.154Z,3.10
2023-04-17T16:51:04.781Z,2.40
2023-04-17T16:53:31.869Z,4.38
2023-04-17T16:55:58.656Z,3.05
2023-04-17T16:58:25.241Z,2.70
2023-04-17T17:00:52.007Z,2.40
2023-04-17T17:03:20.094Z,3.03
2023-04-17T17:05:47.117Z,3.22
2023-04-17T17:08:14.530Z,3.30
2023-04-17T17:10:41.282Z,2.70
2023-04-17T17:13:07.970Z,3.03
2023-04-17T17:15:34.785Z,3.22
2023-04-17T17:18:01.569Z,3.40
2023-04-17T17:20:28.354Z,2.95
2023-04-17T17:22:55.010Z,3.10
2023-04-17T17:25:23.084Z,3.17
2023-04-17T17:27:49.844Z,2.92
2023-04-17T17:30:16.752Z,3.58
2023-04-17T17:32:43.470Z,4.20
2023-04-17T17:35:10.222Z,3.15
2023-04-17T17:37:36.951Z,3.67
2023-04-17T17:40:04.410Z,3.45
2023-04-17T17:42:31.076Z,5.13
2023-04-17T17:44:57.718Z,4.18
2023-04-17T17:47:24.392Z,3.50
2023-04-17T17:49:51.007Z,3.00
2023-04-17T17:52:17.820Z,2.85
2023-04-17T17:54:44.454Z,2.95
2023-04-17T17:57:11.199Z,2.22
2023-04-17T17:59:37.855Z,2.08
2023-04-17T18:02:04.879Z,2.10
2023-04-17T18:04:31.712Z,2.42
2023-04-17T18:06:58.359Z,3.42
2023-04-17T18:09:25.282Z,2.85
2023-04-17T18:11:51.962Z,2.70
2023-04-17T18:14:18.618Z,2.72
2023-04-17T18:16:45.502Z,3.30
2023-04-17T18:19:12.301Z,2.83
2023-04-17T18:21:39.288Z,2.72
2023-04-17T18:24:06.363Z,2.65
2023-04-17T18:26:34.092Z,2.60
2023-04-17T18:29:00.890Z,3.28
2023-04-17T18:31:28.440Z,2.83
2023-04-17T18:33:55.194Z,3.50
2023-04-17T18:36:21.852Z,2.70
2023-04-17T18:38:48.650Z,3.00
2023-04-17T18:41:15.345Z,3.03
2023-04-17T18:43:43.029Z,3.03
2023-04-17T18:46:09.694Z,2.17
2023-04-17T18:48:36.474Z,2.30
2023-04-17T18:51:14.571Z,2.53
2023-04-17T18:53:41.550Z,2.38
2023-04-17T18:56:09.256Z,2.17
2023-04-17T18:58:37.699Z,1.52
2023-04-17T19:01:06.077Z,1.90
2023-04-17T19:03:33.087Z,2.58
2023-04-17T19:05:59.818Z,2.28
2023-04-17T19:08:26.493Z,2.45
2023-04-17T19:10:53.167Z,2.65
2023-04-17T19:13:19.910Z,2.00
2023-04-17T19:15:46.508Z,2.33
2023-04-17T19:18:13.224Z,2.25
2023-04-17T19:20:41.270Z,2.50
2023-04-17T19:23:09.362Z,2.28
2023-04-17T19:25:38.764Z,2.92
2023-04-17T19:28:05.865Z,2.42
2023-04-17T19:30:32.540Z,2.60
2023-04-17T19:32:59.414Z,3.72
2023-04-17T19:35:26.455Z,4.13
2023-04-17T19:37:53.171Z,2.78
2023-04-17T19:40:24.893Z,3.08
2023-04-17T19:42:52.544Z,3.40
2023-04-17T19:45:20.904Z,2.85
2023-04-17T19:47:55.001Z,3.33
2023-04-17T19:50:27.385Z,3.25
2023-04-17T19:52:55.169Z,3.00
2023-04-17T19:55:21.980Z,2.42
2023-04-17T19:57:50.673Z,3.65
2023-04-17T20:00:17.814Z,2.72
2023-04-17T20:02:44.784Z,2.55
2023-04-17T20:05:12.235Z,2.88
2023-04-17T20:07:38.970Z,2.10
2023-04-17T20:10:06.927Z,3.85
2023-04-17T20:12:33.863Z,3.55
2023-04-17T20:15:01.129Z,4.00
2023-04-17T20:17:27.866Z,3.85
2023-04-17T20:19:54.564Z,4.35
2023-04-17T20:22:21.221Z,5.40
2023-04-17T20:24:51.109Z,4.00
2023-04-17T20:27:18.093Z,3.42
2023-04-17T20:29:45.056Z,3.92
2023-04-17T20:32:11.956Z,3.70
2023-04-17T20:34:38.582Z,5.25
2023-04-17T20:37:05.297Z,3.67
2023-04-17T20:39:32.245Z,2.88
2023-04-17T20:42:01.999Z,3.17
2023-04-17T20:44:28.704Z,6.38
2023-04-17T20:46:55.354Z,4.22
2023-04-17T20:49:22.084Z,4.88
2023-04-17T20:51:48.918Z,5.30
2023-04-17T20:54:15.788Z,5.07
2023-04-17T20:56:43.418Z,4.93
2023-04-17T20:59:10.765Z,5.22
2023-04-17T21:01:37.481Z,4.85
2023-04-17T21:04:04.465Z,5.47
2023-04-17T21:06:31.225Z,5.13
2023-04-17T21:08:57.993Z,5.05
2023-04-17T21:11:24.832Z,4.88
2023-04-17T21:13:51.534Z,5.80
2023-04-17T21:16:18.186Z,6.38
2023-04-17T21:18:45.389Z,6.55
2023-04-17T21:21:12.046Z,5.65
2023-04-17T21:23:38.661Z,6.10
2023-04-17T21:26:05.310Z,8.57
2023-04-17T21:28:33.143Z,7.70
2023-04-17T21:30:59.786Z,5.97
2023-04-17T21:33:26.421Z,6.55
2023-04-17T21:35:53.101Z,6.07
2023-04-17T21:38:19.758Z,5.40
2023-04-17T21:43:18.320Z,5.47
2023-04-17T21:45:44.983Z,5.80
2023-04-17T21:48:11.584Z,4.75
2023-04-17T21:50:39.475Z,4.68
2023-04-17T21:53:07.821Z,4.57
2023-04-17T21:55:35.217Z,5.18
2023-04-17T21:58:01.984Z,5.00
2023-04-17T22:00:28.700Z,4.68
2023-04-17T22:02:55.423Z,5.03
2023-04-17T22:05:22.158Z,5.72
2023-04-17T22:07:55.055Z,4.68
2023-04-17T22:10:23.690Z,4.10
2023-04-17T22:12:51.280Z,4.63
2023-04-17T22:15:18.013Z,4.63
2023-04-17T22:17:44.749Z,4.50
2023-04-17T22:20:11.986Z,5.80
2023-04-17T22:22:38.630Z,4.47
2023-04-17T22:25:05.832Z,5.63
2023-04-17T22:27:32.476Z,4.75
2023-04-17T22:29:59.163Z,5.65
2023-04-17T22:32:25.938Z,7.05
2023-04-17T22:34:52.581Z,5.38
2023-04-17T22:37:19.381Z,7.40
2023-04-17T22:39:46.389Z,7.45
2023-04-17T22:42:13.006Z,7.28
2023-04-17T22:44:41.829Z,7.72
2023-04-17T22:47:08.434Z,8.80
2023-04-17T22:49:38.068Z,8.52
2023-04-17T22:52:06.256Z,7.60
2023-04-17T22:54:34.111Z,7.93
2023-04-17T22:57:02.385Z,8.00
2023-04-17T22:59:29.958Z,8.30
2023-04-17T23:01:56.821Z,7.78
2023-04-17T23:04:24.186Z,7.20
2023-04-17T23:06:50.905Z,8.05
2023-04-17T23:09:18.742Z,7.85
2023-04-17T23:11:45.488Z,7.90
2023-04-17T23:14:12.391Z,9.48
2023-04-17T23:16:39.334Z,8.60
2023-04-17T23:19:06.003Z,10.20
2023-04-17T23:21:32.733Z,10.38
2023-04-17T23:23:59.412Z,10.55
2023-04-17T23:26:26.103Z,10.32
2023-04-17T23:28:52.788Z,10.20
2023-04-17T23:31:19.467Z,11.38
2023-04-17T23:33:48.955Z,11.80
2023-04-17T23:36:15.660Z,12.20
2023-04-17T23:38:42.628Z,12.93
2023-04-17T23:41:09.331Z,11.85
2023-04-17T23:43:36.009Z,11.70
2023-04-17T23:46:02.708Z,12.15
2023-04-17T23:48:29.372Z,12.68
2023-04-17T23:50:56.122Z,13.13
2023-04-17T23:53:22.936Z,13.15
2023-04-17T23:55:49.562Z,12.88
2023-04-17T23:58:16.255Z,14.73
